sensor_id;sensor_type;location;lat;lon;timestamp;pressure;altitude;pressure_sealevel;temperature;humidity
64895;BME280;51588;53.702;10.208;2024-03-02T00:01:22;100093.81;;;20.83;43.94
64895;BME280;51588;53.702;10.208;2024-03-02T00:03:49;100063.19;;;20.66;43.99
64895;BME280;51588;53.702;10.208;2024-03-02T00:06:20;100088.06;;;20.79;44.17
64895;BME280;51588;53.702;10.208;2024-03-02T00:08:46;100086.19;;;20.80;43.82
64895;BME280;51588;53.702;10.208;2024-03-02T00:11:14;100084.53;;;20.79;43.99
64895;BME280;51588;53.702;10.208;2024-03-02T00:13:41;100084.53;;;20.79;44.07
64895;BME280;51588;53.702;10.208;2024-03-02T00:16:08;100088.28;;;20.78;44.13
64895;BME280;51588;53.702;10.208;2024-03-02T00:18:36;100080.19;;;20.78;43.94
64895;BME280;51588;53.702;10.208;2024-03-02T00:21:03;100076.91;;;20.76;43.86
64895;BME280;51588;53.702;10.208;2024-03-02T00:23:34;100076.09;;;20.75;43.86
64895;BME280;51588;53.702;10.208;2024-03-02T00:26:02;100063.63;;;20.74;44.16
64895;BME280;51588;53.702;10.208;2024-03-02T00:28:31;100068.22;;;20.74;43.82
64895;BME280;51588;53.702;10.208;2024-03-02T00:31:02;100065.97;;;20.71;44.02
64895;BME280;51588;53.702;10.208;2024-03-02T00:33:31;100072.22;;;20.71;44.00
64895;BME280;51588;53.702;10.208;2024-03-02T00:35:58;100064.09;;;20.71;43.97
64895;BME280;51588;53.702;10.208;2024-03-02T00:38:26;100057.06;;;20.70;43.97
64895;BME280;51588;53.702;10.208;2024-03-02T00:40:58;100064.38;;;20.70;43.94
64895;BME280;51588;53.702;10.208;2024-03-02T00:43:47;100063.88;;;20.73;44.10
64895;BME280;51588;53.702;10.208;2024-03-02T00:46:16;100054.59;;;20.69;43.92
64895;BME280;51588;53.702;10.208;2024-03-02T00:48:48;100049.19;;;20.69;43.96
64895;BME280;51588;53.702;10.208;2024-03-02T00:51:15;100057.06;;;20.70;43.95
64895;BME280;51588;53.702;10.208;2024-03-02T00:53:41;100046.50;;;20.69;43.98
64895;BME280;51588;53.702;10.208;2024-03-02T00:56:09;100045.91;;;20.67;43.95
64895;BME280;51588;53.702;10.208;2024-03-02T00:58:37;100044.00;;;20.67;44.12
64895;BME280;51588;53.702;10.208;2024-03-02T01:01:08;100025.00;;;20.51;43.99
64895;BME280;51588;53.702;10.208;2024-03-02T01:03:35;100052.38;;;20.66;44.01
64895;BME280;51588;53.702;10.208;2024-03-02T01:06:02;100054.00;;;20.67;43.95
64895;BME280;51588;53.702;10.208;2024-03-02T01:08:29;100057.78;;;20.66;44.12
64895;BME280;51588;53.702;10.208;2024-03-02T01:11:01;100051.66;;;20.59;43.91
64895;BME280;51588;53.702;10.208;2024-03-02T01:13:31;100055.31;;;20.64;44.03
64895;BME280;51588;53.702;10.208;2024-03-02T01:16:01;100058.00;;;20.64;43.92
64895;BME280;51588;53.702;10.208;2024-03-02T01:18:30;100031.38;;;20.44;44.01
64895;BME280;51588;53.702;10.208;2024-03-02T01:20:57;100067.16;;;20.63;43.85
64895;BME280;51588;53.702;10.208;2024-03-02T01:23:24;100062.03;;;20.62;43.88
64895;BME280;51588;53.702;10.208;2024-03-02T01:25:51;100065.53;;;20.62;44.12
64895;BME280;51588;53.702;10.208;2024-03-02T01:28:18;100062.81;;;20.62;43.93
64895;BME280;51588;53.702;10.208;2024-03-02T01:30:46;100062.25;;;20.60;43.88
64895;BME280;51588;53.702;10.208;2024-03-02T01:33:12;100058.72;;;20.60;44.02
64895;BME280;51588;53.702;10.208;2024-03-02T01:35:40;100055.19;;;20.59;44.04
64895;BME280;51588;53.702;10.208;2024-03-02T01:38:07;100052.50;;;20.59;43.76
64895;BME280;51588;53.702;10.208;2024-03-02T01:40:34;100043.56;;;20.59;43.91
64895;BME280;51588;53.702;10.208;2024-03-02T01:43:01;99960.09;;;20.11;43.83
64895;BME280;51588;53.702;10.208;2024-03-02T01:45:27;100030.31;;;20.57;43.98
64895;BME280;51588;53.702;10.208;2024-03-02T01:47:54;100029.25;;;20.58;43.96
64895;BME280;51588;53.702;10.208;2024-03-02T01:50:25;100024.91;;;20.57;43.90
64895;BME280;51588;53.702;10.208;2024-03-02T01:52:54;100032.19;;;20.57;43.89
64895;BME280;51588;53.702;10.208;2024-03-02T01:55:20;100042.97;;;20.57;44.02
64895;BME280;51588;53.702;10.208;2024-03-02T01:57:47;100044.03;;;20.56;43.90
64895;BME280;51588;53.702;10.208;2024-03-02T02:00:19;100035.94;;;20.56;44.18
64895;BME280;51588;53.702;10.208;2024-03-02T02:02:46;100039.47;;;20.56;43.89
64895;BME280;51588;53.702;10.208;2024-03-02T02:05:13;100036.19;;;20.54;44.16
64895;BME280;51588;53.702;10.208;2024-03-02T02:07:40;100035.38;;;20.54;43.72
64895;BME280;51588;53.702;10.208;2024-03-02T02:10:09;100039.09;;;20.53;43.80
64895;BME280;51588;53.702;10.208;2024-03-02T02:12:36;100029.34;;;20.52;44.13
64895;BME280;51588;53.702;10.208;2024-03-02T02:15:04;100035.59;;;20.52;43.75
64895;BME280;51588;53.702;10.208;2024-03-02T02:17:31;100032.06;;;20.52;43.82
64895;BME280;51588;53.702;10.208;2024-03-02T02:19:57;100025.00;;;20.51;43.94
64895;BME280;51588;53.702;10.208;2024-03-02T02:22:25;100027.69;;;20.51;43.91
64895;BME280;51588;53.702;10.208;2024-03-02T02:24:52;100030.41;;;20.51;43.79
64895;BME280;51588;53.702;10.208;2024-03-02T02:27:18;100032.31;;;20.50;44.07
64895;BME280;51588;53.702;10.208;2024-03-02T02:29:45;99986.59;;;20.25;44.06
64895;BME280;51588;53.702;10.208;2024-03-02T02:32:11;100029.63;;;20.50;44.16
64895;BME280;51588;53.702;10.208;2024-03-02T02:34:41;99999.78;;;20.33;44.10
64895;BME280;51588;53.702;10.208;2024-03-02T02:37:08;100024.44;;;20.49;43.93
64895;BME280;51588;53.702;10.208;2024-03-02T02:39:36;100022.78;;;20.48;44.20
64895;BME280;51588;53.702;10.208;2024-03-02T02:42:03;100025.47;;;20.48;43.87
64895;BME280;51588;53.702;10.208;2024-03-02T02:44:29;100027.34;;;20.47;43.96
64895;BME280;51588;53.702;10.208;2024-03-02T02:46:59;100020.06;;;20.48;43.87
64895;BME280;51588;53.702;10.208;2024-03-02T02:49:26;99994.59;;;20.32;43.86
64895;BME280;51588;53.702;10.208;2024-03-02T02:51:52;100016.56;;;20.47;44.04
64895;BME280;51588;53.702;10.208;2024-03-02T02:54:19;100017.63;;;20.46;44.09
64895;BME280;51588;53.702;10.208;2024-03-02T02:56:47;100018.69;;;20.45;44.08
64895;BME280;51588;53.702;10.208;2024-03-02T02:59:13;99973.72;;;20.16;44.05
64895;BME280;51588;53.702;10.208;2024-03-02T03:01:40;100005.19;;;20.45;43.75
64895;BME280;51588;53.702;10.208;2024-03-02T03:04:06;100007.03;;;20.44;43.67
64895;BME280;51588;53.702;10.208;2024-03-02T03:06:33;99973.66;;;20.27;43.74
64895;BME280;51588;53.702;10.208;2024-03-02T03:09:00;99861.78;;;19.60;43.88
64895;BME280;51588;53.702;10.208;2024-03-02T03:11:27;99839.84;;;19.45;43.89
64895;BME280;51588;53.702;10.208;2024-03-02T03:13:55;99999.16;;;20.43;43.87
64895;BME280;51588;53.702;10.208;2024-03-02T03:16:21;100001.88;;;20.43;44.09
64895;BME280;51588;53.702;10.208;2024-03-02T03:18:48;99999.16;;;20.43;43.66
64895;BME280;51588;53.702;10.208;2024-03-02T03:21:17;100000.47;;;20.40;44.00
64895;BME280;51588;53.702;10.208;2024-03-02T03:23:43;99992.97;;;20.42;43.90
64895;BME280;51588;53.702;10.208;2024-03-02T03:26:10;99992.16;;;20.42;43.87
64895;BME280;51588;53.702;10.208;2024-03-02T03:28:36;99988.13;;;20.21;44.02
64895;BME280;51588;53.702;10.208;2024-03-02T03:31:04;100007.53;;;20.41;43.94
64895;BME280;51588;53.702;10.208;2024-03-02T03:33:31;100002.13;;;20.41;44.11
64895;BME280;51588;53.702;10.208;2024-03-02T03:35:58;100010.47;;;20.40;43.95
64895;BME280;51588;53.702;10.208;2024-03-02T03:38:24;100009.41;;;20.41;44.01
64895;BME280;51588;53.702;10.208;2024-03-02T03:40:51;99956.78;;;20.09;43.93
64895;BME280;51588;53.702;10.208;2024-03-02T03:43:18;100014.47;;;20.37;43.74
64895;BME280;51588;53.702;10.208;2024-03-02T03:45:44;100005.31;;;20.38;43.92
64895;BME280;51588;53.702;10.208;2024-03-02T03:48:12;100004.47;;;20.38;43.93
64895;BME280;51588;53.702;10.208;2024-03-02T03:50:39;99964.31;;;20.07;43.91
64895;BME280;51588;53.702;10.208;2024-03-02T03:53:05;99813.53;;;19.06;44.03
64895;BME280;51588;53.702;10.208;2024-03-02T03:55:32;100007.41;;;20.36;43.97
64895;BME280;51588;53.702;10.208;2024-03-02T03:57:59;100002.84;;;20.37;43.90
64895;BME280;51588;53.702;10.208;2024-03-02T04:00:25;100010.94;;;20.37;44.00
64895;BME280;51588;53.702;10.208;2024-03-02T04:02:52;100007.41;;;20.36;43.84
64895;BME280;51588;53.702;10.208;2024-03-02T04:05:23;100011.16;;;20.35;43.80
64895;BME280;51588;53.702;10.208;2024-03-02T04:07:49;99987.31;;;20.21;43.74
64895;BME280;51588;53.702;10.208;2024-03-02T04:10:18;99995.22;;;20.34;43.98
64895;BME280;51588;53.702;10.208;2024-03-02T04:12:51;100005.19;;;20.33;43.94
64895;BME280;51588;53.702;10.208;2024-03-02T04:15:23;100000.84;;;20.32;43.96
64895;BME280;51588;53.702;10.208;2024-03-02T04:17:50;99999.19;;;20.31;43.91
64895;BME280;51588;53.702;10.208;2024-03-02T04:20:19;99996.47;;;20.31;43.71
64895;BME280;51588;53.702;10.208;2024-03-02T04:22:47;99980.38;;;20.25;43.96
64895;BME280;51588;53.702;10.208;2024-03-02T04:25:13;99989.22;;;20.32;43.90
64895;BME280;51588;53.702;10.208;2024-03-02T04:27:43;99983.22;;;20.30;43.93
64895;BME280;51588;53.702;10.208;2024-03-02T04:30:10;99986.97;;;20.29;43.79
64895;BME280;51588;53.702;10.208;2024-03-02T04:32:37;99991.34;;;20.30;43.92
64895;BME280;51588;53.702;10.208;2024-03-02T04:35:04;99994.03;;;20.30;43.85
64895;BME280;51588;53.702;10.208;2024-03-02T04:37:34;99953.28;;;19.96;43.75
64895;BME280;51588;53.702;10.208;2024-03-02T04:40:02;99986.38;;;20.27;43.76
64895;BME280;51588;53.702;10.208;2024-03-02T04:42:32;99992.56;;;20.27;43.91
64895;BME280;51588;53.702;10.208;2024-03-02T04:45:02;99988.84;;;20.28;43.84
64895;BME280;51588;53.702;10.208;2024-03-02T04:47:29;99988.25;;;20.26;43.93
64895;BME280;51588;53.702;10.208;2024-03-02T04:50:01;99962.31;;;20.14;43.76
64895;BME280;51588;53.702;10.208;2024-03-02T04:52:28;99913.16;;;19.77;44.07
64895;BME280;51588;53.702;10.208;2024-03-02T04:54:54;100001.97;;;20.25;43.75
64895;BME280;51588;53.702;10.208;2024-03-02T04:57:53;99995.75;;;20.24;43.84
64895;BME280;51588;53.702;10.208;2024-03-02T05:00:21;99995.53;;;20.26;43.86
64895;BME280;51588;53.702;10.208;2024-03-02T05:02:48;99738.84;;;18.71;43.84
64895;BME280;51588;53.702;10.208;2024-03-02T05:05:14;99996.84;;;20.23;43.68
64895;BME280;51588;53.702;10.208;2024-03-02T05:07:42;99994.13;;;20.23;43.81
64895;BME280;51588;53.702;10.208;2024-03-02T05:10:09;100006.00;;;20.22;44.03
64895;BME280;51588;53.702;10.208;2024-03-02T05:12:37;100004.34;;;20.21;44.01
64895;BME280;51588;53.702;10.208;2024-03-02T05:15:23;100010.56;;;20.22;43.89
64895;BME280;51588;53.702;10.208;2024-03-02T05:17:49;100009.75;;;20.21;43.84
64895;BME280;51588;53.702;10.208;2024-03-02T05:20:16;100017.63;;;20.23;43.94
64895;BME280;51588;53.702;10.208;2024-03-02T05:22:43;100007.25;;;20.20;43.78
64895;BME280;51588;53.702;10.208;2024-03-02T05:25:09;100007.03;;;20.21;43.63
64895;BME280;51588;53.702;10.208;2024-03-02T05:27:36;100004.56;;;20.20;43.80
64895;BME280;51588;53.702;10.208;2024-03-02T05:30:04;99948.13;;;19.83;43.64
64895;BME280;51588;53.702;10.208;2024-03-02T05:32:34;100006.69;;;20.18;43.85
64895;BME280;51588;53.702;10.208;2024-03-02T05:35:00;99863.47;;;19.31;43.76
64895;BME280;51588;53.702;10.208;2024-03-02T05:37:28;100004.81;;;20.18;43.91
64895;BME280;51588;53.702;10.208;2024-03-02T05:39:54;99996.94;;;20.17;43.63
64895;BME280;51588;53.702;10.208;2024-03-02T05:42:21;100005.88;;;20.17;43.57
64895;BME280;51588;53.702;10.208;2024-03-02T05:44:51;100001.50;;;20.16;43.80
64895;BME280;51588;53.702;10.208;2024-03-02T05:47:21;100001.50;;;20.16;43.59
64895;BME280;51588;53.702;10.208;2024-03-02T05:49:49;99947.06;;;19.84;44.07
64895;BME280;51588;53.702;10.208;2024-03-02T05:52:15;100003.41;;;20.16;43.79
64895;BME280;51588;53.702;10.208;2024-03-02T05:54:42;99999.91;;;20.15;43.87
64895;BME280;51588;53.702;10.208;2024-03-02T05:57:11;99998.03;;;20.16;43.74
64895;BME280;51588;53.702;10.208;2024-03-02T06:00:00;100001.75;;;20.15;43.69
64895;BME280;51588;53.702;10.208;2024-03-02T06:02:27;100002.81;;;20.14;43.66
64895;BME280;51588;53.702;10.208;2024-03-02T06:04:58;99985.44;;;19.98;43.92
64895;BME280;51588;53.702;10.208;2024-03-02T06:07:24;100007.16;;;20.15;43.79
64895;BME280;51588;53.702;10.208;2024-03-02T06:09:51;100017.38;;;20.13;43.88
64895;BME280;51588;53.702;10.208;2024-03-02T06:12:20;100004.69;;;20.13;43.66
64895;BME280;51588;53.702;10.208;2024-03-02T06:14:47;100010.09;;;20.13;43.66
64895;BME280;51588;53.702;10.208;2024-03-02T06:17:13;99977.56;;;19.96;43.70
64895;BME280;51588;53.702;10.208;2024-03-02T06:19:40;100004.94;;;20.12;43.64
64895;BME280;51588;53.702;10.208;2024-03-02T06:22:11;100011.41;;;20.11;43.75
64895;BME280;51588;53.702;10.208;2024-03-02T06:24:41;100014.91;;;20.11;43.84
64895;BME280;51588;53.702;10.208;2024-03-02T06:27:07;100015.16;;;20.10;43.65
64895;BME280;51588;53.702;10.208;2024-03-02T06:29:34;100018.66;;;20.10;43.60
64895;BME280;51588;53.702;10.208;2024-03-02T06:32:00;100021.38;;;20.10;43.78
64895;BME280;51588;53.702;10.208;2024-03-02T06:34:29;99992.97;;;19.96;43.57
64895;BME280;51588;53.702;10.208;2024-03-02T06:36:59;99957.63;;;19.74;43.31
64895;BME280;51588;53.702;10.208;2024-03-02T06:39:27;100021.94;;;20.12;43.55
64895;BME280;51588;53.702;10.208;2024-03-02T06:41:53;100018.78;;;20.15;43.51
64895;BME280;51588;53.702;10.208;2024-03-02T06:44:20;100024.19;;;20.15;43.66
64895;BME280;51588;53.702;10.208;2024-03-02T06:46:47;100023.59;;;20.13;43.59
64895;BME280;51588;53.702;10.208;2024-03-02T06:49:16;100027.47;;;20.17;43.50
64895;BME280;51588;53.702;10.208;2024-03-02T06:51:43;100005.75;;;20.01;43.54
64895;BME280;51588;53.702;10.208;2024-03-02T06:54:10;100033.81;;;20.23;43.61
64895;BME280;51588;53.702;10.208;2024-03-02T06:56:37;99856.66;;;19.06;43.40
64895;BME280;51588;53.702;10.208;2024-03-02T06:59:06;99922.31;;;19.53;43.61
64895;BME280;51588;53.702;10.208;2024-03-02T07:01:35;100029.38;;;20.28;43.74
64895;BME280;51588;53.702;10.208;2024-03-02T07:04:07;99972.63;;;19.93;43.70
64895;BME280;51588;53.702;10.208;2024-03-02T07:06:34;100041.59;;;20.31;43.58
64895;BME280;51588;53.702;10.208;2024-03-02T07:09:00;100023.13;;;20.28;43.74
64895;BME280;51588;53.702;10.208;2024-03-02T07:11:27;100027.84;;;20.32;43.75
64895;BME280;51588;53.702;10.208;2024-03-02T07:13:58;100028.66;;;20.33;43.81
64895;BME280;51588;53.702;10.208;2024-03-02T07:16:25;100033.03;;;20.34;43.74
64895;BME280;51588;53.702;10.208;2024-03-02T07:18:56;100023.03;;;20.34;43.75
64895;BME280;51588;53.702;10.208;2024-03-02T07:21:24;100046.06;;;20.37;43.62
64895;BME280;51588;53.702;10.208;2024-03-02T07:23:51;100033.38;;;20.37;43.87
64895;BME280;51588;53.702;10.208;2024-03-02T07:26:17;100037.94;;;20.37;43.95
64895;BME280;51588;53.702;10.208;2024-03-02T07:28:45;99940.50;;;19.80;43.85
64895;BME280;51588;53.702;10.208;2024-03-02T07:31:14;100033.94;;;20.39;44.14
64895;BME280;51588;53.702;10.208;2024-03-02T07:33:41;100017.16;;;20.26;44.03
64895;BME280;51588;53.702;10.208;2024-03-02T07:36:07;100033.72;;;20.41;43.98
64895;BME280;51588;53.702;10.208;2024-03-02T07:38:34;100033.50;;;20.42;43.97
64895;BME280;51588;53.702;10.208;2024-03-02T07:41:07;100038.66;;;20.44;44.02
64895;BME280;51588;53.702;10.208;2024-03-02T07:43:34;100032.91;;;20.29;43.99
64895;BME280;51588;53.702;10.208;2024-03-02T07:46:06;100057.56;;;20.44;44.06
64895;BME280;51588;53.702;10.208;2024-03-02T07:48:34;100064.38;;;20.47;44.11
64895;BME280;51588;53.702;10.208;2024-03-02T07:51:04;100043.09;;;20.27;44.50
64895;BME280;51588;53.702;10.208;2024-03-02T07:53:31;99926.16;;;19.45;44.43
64895;BME280;51588;53.702;10.208;2024-03-02T07:55:57;99968.53;;;19.79;44.46
64895;BME280;51588;53.702;10.208;2024-03-02T07:58:27;99314.25;;;15.78;44.68
64895;BME280;51588;53.702;10.208;2024-03-02T08:00:54;100071.19;;;20.49;44.86
64895;BME280;51588;53.702;10.208;2024-03-02T08:03:22;99974.28;;;19.83;45.00
64895;BME280;51588;53.702;10.208;2024-03-02T08:05:50;99976.84;;;19.78;44.85
64895;BME280;51588;53.702;10.208;2024-03-02T08:08:16;100075.28;;;20.52;45.00
64895;BME280;51588;53.702;10.208;2024-03-02T08:10:44;100035.91;;;20.21;45.12
64895;BME280;51588;53.702;10.208;2024-03-02T08:13:13;100074.47;;;20.51;44.81
64895;BME280;51588;53.702;10.208;2024-03-02T08:15:40;99918.47;;;19.19;44.98
64895;BME280;51588;53.702;10.208;2024-03-02T08:18:07;100077.78;;;20.53;44.92
64895;BME280;51588;53.702;10.208;2024-03-02T08:20:34;100079.41;;;20.54;44.98
64895;BME280;51588;53.702;10.208;2024-03-02T08:23:02;100012.44;;;20.10;44.53
64895;BME280;51588;53.702;10.208;2024-03-02T08:25:29;100013.63;;;20.02;44.92
64895;BME280;51588;53.702;10.208;2024-03-02T08:27:58;100102.09;;;20.53;44.86
64895;BME280;51588;53.702;10.208;2024-03-02T08:30:27;100098.34;;;20.54;44.97
64895;BME280;51588;53.702;10.208;2024-03-02T08:32:54;100091.03;;;20.55;44.94
64895;BME280;51588;53.702;10.208;2024-03-02T08:35:21;100125.09;;;20.56;44.83
64895;BME280;51588;53.702;10.208;2024-03-02T08:37:48;100102.09;;;20.53;45.22
64895;BME280;51588;53.702;10.208;2024-03-02T08:40:22;100097.25;;;20.55;45.72
64895;BME280;51588;53.702;10.208;2024-03-02T08:42:49;100097.25;;;20.55;46.17
64895;BME280;51588;53.702;10.208;2024-03-02T08:45:19;100104.31;;;20.56;47.38
64895;BME280;51588;53.702;10.208;2024-03-02T08:47:46;100099.13;;;20.55;48.23
64895;BME280;51588;53.702;10.208;2024-03-02T08:50:13;100028.66;;;20.10;49.13
64895;BME280;51588;53.702;10.208;2024-03-02T08:52:40;100102.78;;;20.60;49.56
64895;BME280;51588;53.702;10.208;2024-03-02T08:55:08;100109.84;;;20.61;50.26
64895;BME280;51588;53.702;10.208;2024-03-02T08:57:38;100106.88;;;20.63;50.60
64895;BME280;51588;53.702;10.208;2024-03-02T09:00:05;100104.78;;;20.65;51.37
64895;BME280;51588;53.702;10.208;2024-03-02T09:02:33;100106.44;;;20.66;50.94
64895;BME280;51588;53.702;10.208;2024-03-02T09:05:00;100070.25;;;20.43;51.19
64895;BME280;51588;53.702;10.208;2024-03-02T09:07:27;100114.88;;;20.69;51.25
64895;BME280;51588;53.702;10.208;2024-03-02T09:09:56;100054.16;;;20.37;52.03
64895;BME280;51588;53.702;10.208;2024-03-02T09:12:22;100095.03;;;20.64;52.12
64895;BME280;51588;53.702;10.208;2024-03-02T09:14:50;100113.44;;;20.78;51.99
64895;BME280;51588;53.702;10.208;2024-03-02T09:17:17;100108.88;;;20.79;51.98
64895;BME280;51588;53.702;10.208;2024-03-02T09:19:44;100105.94;;;20.80;51.64
64895;BME280;51588;53.702;10.208;2024-03-02T09:22:10;100085.03;;;20.64;51.21
64895;BME280;51588;53.702;10.208;2024-03-02T09:24:37;100114.41;;;20.84;51.45
64895;BME280;51588;53.702;10.208;2024-03-02T09:27:11;100114.63;;;20.82;51.38
64895;BME280;51588;53.702;10.208;2024-03-02T09:29:43;100122.50;;;20.84;51.09
64895;BME280;51588;53.702;10.208;2024-03-02T09:32:13;100124.97;;;20.85;51.43
64895;BME280;51588;53.702;10.208;2024-03-02T09:34:40;100123.91;;;20.86;50.92
64895;BME280;51588;53.702;10.208;2024-03-02T09:37:08;100113.78;;;20.82;50.83
64895;BME280;51588;53.702;10.208;2024-03-02T09:39:35;100130.75;;;20.89;50.72
64895;BME280;51588;53.702;10.208;2024-03-02T09:42:03;100120.97;;;20.88;50.59
64895;BME280;51588;53.702;10.208;2024-03-02T09:44:30;100128.03;;;20.89;50.22
64895;BME280;51588;53.702;10.208;2024-03-02T09:46:57;100133.19;;;20.90;50.20
64895;BME280;51588;53.702;10.208;2024-03-02T09:49:25;100062.38;;;20.54;50.25
64895;BME280;51588;53.702;10.208;2024-03-02T09:51:52;100119.66;;;20.90;50.33
64895;BME280;51588;53.702;10.208;2024-03-02T09:54:25;100116.13;;;20.90;50.54
64895;BME280;51588;53.702;10.208;2024-03-02T09:56:52;100114.88;;;20.92;50.39
64895;BME280;51588;53.702;10.208;2024-03-02T09:59:20;100118.34;;;20.93;49.88
64895;BME280;51588;53.702;10.208;2024-03-02T10:01:58;100112.72;;;20.95;49.61
64895;BME280;51588;53.702;10.208;2024-03-02T10:04:27;100126.72;;;20.91;49.49
64895;BME280;51588;53.702;10.208;2024-03-02T10:07:09;100127.28;;;20.93;49.27
64895;BME280;51588;53.702;10.208;2024-03-02T10:09:37;100102.75;;;20.83;49.19
64895;BME280;51588;53.702;10.208;2024-03-02T10:12:04;100024.31;;;20.32;49.32
64895;BME280;51588;53.702;10.208;2024-03-02T10:14:31;100101.94;;;20.83;48.79
64895;BME280;51588;53.702;10.208;2024-03-02T10:17:02;100124.59;;;20.93;48.94
64895;BME280;51588;53.702;10.208;2024-03-02T10:19:30;100117.31;;;20.94;48.83
64895;BME280;51588;53.702;10.208;2024-03-02T10:21:59;100105.34;;;20.78;48.40
64895;BME280;51588;53.702;10.208;2024-03-02T10:24:26;100126.03;;;20.96;48.55
64895;BME280;51588;53.702;10.208;2024-03-02T10:26:55;100106.28;;;20.84;48.30
64895;BME280;51588;53.702;10.208;2024-03-02T10:29:24;100123.88;;;20.98;48.26
64895;BME280;51588;53.702;10.208;2024-03-02T10:31:54;100120.00;;;20.94;48.19
64895;BME280;51588;53.702;10.208;2024-03-02T10:34:21;100084.34;;;20.69;47.58
64895;BME280;51588;53.702;10.208;2024-03-02T10:36:49;100125.19;;;20.96;47.49
64895;BME280;51588;53.702;10.208;2024-03-02T10:39:19;100126.03;;;20.96;47.62
64895;BME280;51588;53.702;10.208;2024-03-02T10:41:49;100126.03;;;20.96;47.50
64895;BME280;51588;53.702;10.208;2024-03-02T10:44:18;100131.44;;;20.96;47.29
64895;BME280;51588;53.702;10.208;2024-03-02T10:46:47;100130.34;;;20.97;47.29
64895;BME280;51588;53.702;10.208;2024-03-02T10:49:13;100117.66;;;20.98;47.22
64895;BME280;51588;53.702;10.208;2024-03-02T10:51:40;100124.16;;;20.97;47.08
64895;BME280;51588;53.702;10.208;2024-03-02T10:54:11;100124.94;;;20.97;47.01
64895;BME280;51588;53.702;10.208;2024-03-02T10:56:39;100125.75;;;20.98;47.11
64895;BME280;51588;53.702;10.208;2024-03-02T10:59:15;100087.50;;;20.66;47.19
64895;BME280;51588;53.702;10.208;2024-03-02T11:01:43;100085.16;;;20.69;46.86
64895;BME280;51588;53.702;10.208;2024-03-02T11:04:15;100126.84;;;20.97;47.07
64895;BME280;51588;53.702;10.208;2024-03-02T11:06:46;100133.31;;;20.96;47.05
64895;BME280;51588;53.702;10.208;2024-03-02T11:09:18;100131.44;;;20.96;46.98
64895;BME280;51588;53.702;10.208;2024-03-02T11:11:55;100138.47;;;20.97;46.87
64895;BME280;51588;53.702;10.208;2024-03-02T11:14:24;100131.66;;;20.95;47.18
64895;BME280;51588;53.702;10.208;2024-03-02T11:16:52;100080.34;;;20.60;47.19
64895;BME280;51588;53.702;10.208;2024-03-02T11:19:19;100116.16;;;20.78;46.95
64895;BME280;51588;53.702;10.208;2024-03-02T11:21:46;99970.41;;;19.90;47.02
64895;BME280;51588;53.702;10.208;2024-03-02T11:24:31;100147.88;;;20.95;46.91
64895;BME280;51588;53.702;10.208;2024-03-02T11:27:01;100089.84;;;20.62;46.77
64895;BME280;51588;53.702;10.208;2024-03-02T11:29:43;100142.25;;;20.96;46.71
64895;BME280;51588;53.702;10.208;2024-03-02T11:32:15;100134.38;;;20.95;47.03
64895;BME280;51588;53.702;10.208;2024-03-02T11:34:42;100082.56;;;20.63;46.77
64895;BME280;51588;53.702;10.208;2024-03-02T11:37:12;100114.28;;;20.79;46.32
64895;BME280;51588;53.702;10.208;2024-03-02T11:39:40;100144.34;;;20.94;46.17
64895;BME280;51588;53.702;10.208;2024-03-02T11:42:07;100141.31;;;20.90;46.10
64895;BME280;51588;53.702;10.208;2024-03-02T11:44:36;100142.25;;;20.96;46.40
64895;BME280;51588;53.702;10.208;2024-03-02T11:47:06;100133.31;;;20.96;46.02
64895;BME280;51588;53.702;10.208;2024-03-02T11:49:37;100133.31;;;20.96;46.02
64895;BME280;51588;53.702;10.208;2024-03-02T11:52:06;100130.59;;;20.96;45.96
64895;BME280;51588;53.702;10.208;2024-03-02T11:54:33;100134.13;;;20.96;46.10
64895;BME280;51588;53.702;10.208;2024-03-02T11:57:03;100137.66;;;20.97;46.00
64895;BME280;51588;53.702;10.208;2024-03-02T11:59:30;100135.75;;;20.97;45.87
64895;BME280;51588;53.702;10.208;2024-03-02T12:01:57;100140.13;;;20.98;45.71
64895;BME280;51588;53.702;10.208;2024-03-02T12:04:24;100007.50;;;20.18;45.83
64895;BME280;51588;53.702;10.208;2024-03-02T12:06:54;100140.94;;;20.99;45.52
64895;BME280;51588;53.702;10.208;2024-03-02T12:09:21;100152.59;;;20.99;45.55
64895;BME280;51588;53.702;10.208;2024-03-02T12:12:03;100141.78;;;20.99;45.45
64895;BME280;51588;53.702;10.208;2024-03-02T12:14:30;100142.00;;;20.98;45.63
64895;BME280;51588;53.702;10.208;2024-03-02T12:16:57;100103.47;;;20.67;45.50
64895;BME280;51588;53.702;10.208;2024-03-02T12:19:25;99975.00;;;19.90;45.43
64895;BME280;51588;53.702;10.208;2024-03-02T12:21:51;100141.78;;;20.99;45.60
64895;BME280;51588;53.702;10.208;2024-03-02T12:24:18;100138.47;;;20.97;45.84
64895;BME280;51588;53.702;10.208;2024-03-02T12:26:50;100116.84;;;20.85;45.45
64895;BME280;51588;53.702;10.208;2024-03-02T12:29:20;100135.19;;;20.95;45.77
64895;BME280;51588;53.702;10.208;2024-03-02T12:31:48;100137.66;;;20.97;45.88
64895;BME280;51588;53.702;10.208;2024-03-02T12:34:16;100134.97;;;20.97;45.89
64895;BME280;51588;53.702;10.208;2024-03-02T12:36:43;100134.97;;;20.97;46.49
64895;BME280;51588;53.702;10.208;2024-03-02T12:39:15;100131.16;;;20.98;46.07
64895;BME280;51588;53.702;10.208;2024-03-02T12:41:41;100128.72;;;20.96;46.26
64895;BME280;51588;53.702;10.208;2024-03-02T12:44:08;100128.13;;;20.94;46.33
64895;BME280;51588;53.702;10.208;2024-03-02T12:46:36;100130.84;;;20.94;46.69
64895;BME280;51588;53.702;10.208;2024-03-02T12:49:08;100096.66;;;20.76;46.90